Time,TemperatureF,DewpointF,PressureIn,WindDirection,WindDirectionDegrees,WindSpeedMPH,WindSpeedGustMPH,Humidity,HourlyPrecipIn,Conditions,Clouds,dailyrainin,SolarRadiationWatts/m^2,SoftwareType,DateUTC
2013-03-29 00:02:00,56.0,32.0,-100.00,North,-999,-999.0,14.0,40,0.00,,,-99.99,0.000000,,2013-03-29 06:02:00,
2013-03-29 00:12:00,54.0,33.0,-100.00,North,-999,-999.0,16.0,45,0.00,,,-99.99,0.000000,,2013-03-29 06:12:00,
2013-03-29 00:22:00,54.0,33.0,-100.00,North,-999,-999.0,16.0,45,0.00,,,-99.99,0.000000,,2013-03-29 06:22:00,
2013-03-29 00:32:00,54.0,33.0,-100.00,North,-999,-999.0,16.0,45,0.00,,,-99.99,0.000000,,2013-03-29 06:32:00,
2013-03-29 00:42:00,54.0,33.0,-100.00,North,-999,-999.0,16.0,45,0.00,,,-99.99,0.000000,,2013-03-29 06:42:00,
2013-03-29 01:22:00,54.0,32.0,-100.00,North,-999,-999.0,14.0,44,0.00,,,-99.99,0.000000,,2013-03-29 07:22:00,
2013-03-29 01:32:00,54.0,33.0,-100.00,North,-999,-999.0,13.0,45,0.00,,,-99.99,0.000000,,2013-03-29 07:32:00,
2013-03-29 01:42:00,53.0,33.0,-100.00,North,-999,-999.0,12.0,46,0.00,,,-99.99,0.000000,,2013-03-29 07:42:00,
2013-03-29 01:52:00,53.0,32.0,-100.00,North,-999,-999.0,12.0,45,0.00,,,-99.99,0.000000,,2013-03-29 07:52:00,
2013-03-29 02:01:00,52.0,31.0,-100.00,North,-999,-999.0,11.0,44,0.00,,,-99.99,0.000000,,2013-03-29 08:01:00,
2013-03-29 02:12:00,52.0,32.0,-100.00,North,-999,-999.0,10.0,45,0.00,,,-99.99,0.000000,,2013-03-29 08:12:00,
2013-03-29 02:22:00,50.0,32.0,-100.00,North,-999,-999.0,8.0,49,0.00,,,-99.99,0.000000,,2013-03-29 08:22:00,
2013-03-29 02:32:00,48.0,33.0,-100.00,North,-999,-999.0,6.0,55,0.00,,,-99.99,0.000000,,2013-03-29 08:32:00,
2013-03-29 02:42:00,50.0,32.0,-100.00,North,-999,-999.0,5.0,50,0.00,,,-99.99,0.000000,,2013-03-29 08:42:00,
2013-03-29 02:51:00,49.0,32.0,-100.00,North,-999,-999.0,7.0,52,0.00,,,-99.99,0.000000,,2013-03-29 08:51:00,
2013-03-29 03:02:00,46.0,32.0,-100.00,North,-999,-999.0,6.0,57,0.00,,,-99.99,0.000000,,2013-03-29 09:02:00,
2013-03-29 03:12:00,50.0,32.0,-100.00,North,-999,-999.0,8.0,51,0.00,,,-99.99,0.000000,,2013-03-29 09:12:00,
2013-03-29 03:21:00,49.0,32.0,-100.00,North,-999,-999.0,5.0,52,0.00,,,-99.99,0.000000,,2013-03-29 09:21:00,
2013-03-29 03:32:00,46.0,32.0,-100.00,North,-999,-999.0,5.0,57,0.00,,,-99.99,0.000000,,2013-03-29 09:32:00,
2013-03-29 03:42:00,45.0,32.0,-100.00,North,-999,-999.0,4.0,59,0.00,,,-99.99,0.000000,,2013-03-29 09:42:00,
2013-03-29 03:52:00,45.0,32.0,-100.00,North,-999,-999.0,4.0,60,0.00,,,-99.99,0.000000,,2013-03-29 09:52:00,
2013-03-29 04:02:00,45.0,32.0,-100.00,North,-999,-999.0,6.0,60,0.00,,,-99.99,0.000000,,2013-03-29 10:02:00,
2013-03-29 04:12:00,44.0,32.0,-100.00,North,-999,-999.0,5.0,63,0.00,,,-99.99,0.000000,,2013-03-29 10:12:00,
2013-03-29 04:22:00,44.0,32.0,-100.00,North,-999,-999.0,4.0,63,0.00,,,-99.99,0.000000,,2013-03-29 10:22:00,
2013-03-29 04:33:00,43.0,32.0,-100.00,North,-999,-999.0,3.0,65,0.00,,,-99.99,0.000000,,2013-03-29 10:33:00,
2013-03-29 04:42:00,43.0,32.0,-100.00,North,-999,-999.0,4.0,64,0.00,,,-99.99,0.000000,,2013-03-29 10:42:00,
2013-03-29 04:50:00,44.0,33.0,-100.00,North,-999,-999.0,3.0,64,0.00,,,-99.99,0.000000,,2013-03-29 10:50:00,
2013-03-29 04:52:00,43.0,32.0,-100.00,North,-999,-999.0,6.0,67,0.00,,,-99.99,0.000000,,2013-03-29 10:52:00,
2013-03-29 05:02:00,44.0,33.0,-100.00,North,-999,-999.0,4.0,64,0.00,,,-99.99,0.000000,,2013-03-29 11:02:00,
2013-03-29 05:12:00,44.0,33.0,-100.00,North,-999,-999.0,3.0,64,0.00,,,-99.99,0.000000,,2013-03-29 11:12:00,
2013-03-29 05:22:00,44.0,33.0,-100.00,North,-999,-999.0,3.0,64,0.00,,,-99.99,0.000000,,2013-03-29 11:22:00,
2013-03-29 05:32:00,44.0,33.0,-100.00,North,-999,-999.0,3.0,64,0.00,,,-99.99,0.000000,,2013-03-29 11:32:00,
2013-03-29 05:42:00,44.0,33.0,-100.00,North,-999,-999.0,3.0,64,0.00,,,-99.99,0.000000,,2013-03-29 11:42:00,
2013-03-29 06:22:00,48.0,32.0,-100.00,North,-999,-999.0,8.0,54,0.00,,,-99.99,0.000000,,2013-03-29 12:22:00,
2013-03-29 06:32:00,46.0,33.0,-100.00,North,-999,-999.0,8.0,59,0.00,,,-99.99,0.000000,,2013-03-29 12:32:00,
2013-03-29 06:42:00,44.0,32.0,-100.00,North,-999,-999.0,6.0,63,0.00,,,-99.99,0.000000,,2013-03-29 12:42:00,
2013-03-29 06:52:00,46.0,33.0,-100.00,North,-999,-999.0,6.0,60,0.00,,,-99.99,0.000000,,2013-03-29 12:52:00,
2013-03-29 07:02:00,47.0,33.0,-100.00,North,-999,-999.0,10.0,58,0.00,,,-99.99,0.000000,,2013-03-29 13:02:00,
2013-03-29 07:12:00,48.0,33.0,-100.00,North,-999,-999.0,15.0,55,0.00,,,-99.99,0.000000,,2013-03-29 13:12:00,
2013-03-29 07:21:00,46.0,33.0,-100.00,North,-999,-999.0,14.0,59,0.00,,,-99.99,0.000000,,2013-03-29 13:21:00,
2013-03-29 07:32:00,46.0,32.0,-100.00,North,-999,-999.0,13.0,59,0.00,,,-99.99,2.000000,,2013-03-29 13:32:00,
2013-03-29 07:42:00,48.0,32.0,-100.00,North,-999,-999.0,7.0,55,0.00,,,-99.99,4.000000,,2013-03-29 13:42:00,
2013-03-29 07:52:00,48.0,32.0,-100.00,North,-999,-999.0,7.0,55,0.00,,,-99.99,4.000000,,2013-03-29 13:52:00,
2013-03-29 08:02:00,46.0,33.0,-100.00,North,-999,-999.0,11.0,60,0.00,,,-99.99,16.000000,,2013-03-29 14:02:00,
2013-03-29 08:12:00,46.0,32.0,-100.00,North,-999,-999.0,12.0,58,0.00,,,-99.99,46.000000,,2013-03-29 14:12:00,
2013-03-29 08:21:00,47.0,32.0,-100.00,North,-999,-999.0,14.0,56,0.00,,,-99.99,39.000000,,2013-03-29 14:21:00,
2013-03-29 08:32:00,47.0,32.0,-100.00,North,-999,-999.0,11.0,56,0.00,,,-99.99,142.000000,,2013-03-29 14:32:00,
2013-03-29 08:42:00,49.0,33.0,-100.00,North,-999,-999.0,9.0,55,0.00,,,-99.99,183.000000,,2013-03-29 14:42:00,
2013-03-29 08:52:00,48.0,33.0,-100.00,North,-999,-999.0,7.0,56,0.00,,,-99.99,212.000000,,2013-03-29 14:52:00,
2013-03-29 09:02:00,47.0,33.0,-100.00,North,-999,-999.0,9.0,58,0.00,,,-99.99,257.000000,,2013-03-29 15:02:00,
2013-03-29 09:11:00,48.0,34.0,-100.00,North,-999,-999.0,8.0,57,0.00,,,-99.99,308.000000,,2013-03-29 15:11:00,
2013-03-29 09:21:00,50.0,32.0,-100.00,North,-999,-999.0,5.0,50,0.00,,,-99.99,370.000000,,2013-03-29 15:21:00,
2013-03-29 09:33:00,52.0,33.0,-100.00,North,-999,-999.0,5.0,49,0.00,,,-99.99,430.000000,,2013-03-29 15:33:00,
2013-03-29 09:42:00,51.0,34.0,-100.00,North,-999,-999.0,7.0,51,0.00,,,-99.99,494.000000,,2013-03-29 15:42:00,
2013-03-29 09:50:00,54.0,32.0,-100.00,North,-999,-999.0,4.0,43,0.00,,,-99.99,487.000000,,2013-03-29 15:50:00,
2013-03-29 09:52:00,51.0,34.0,-100.00,North,-999,-999.0,6.0,52,0.00,,,-99.99,548.000000,,2013-03-29 15:52:00,
2013-03-29 10:03:00,53.0,34.0,-100.00,North,-999,-999.0,4.0,48,0.00,,,-99.99,570.000000,,2013-03-29 16:03:00,
2013-03-29 10:12:00,54.0,32.0,-100.00,North,-999,-999.0,4.0,43,0.00,,,-99.99,487.000000,,2013-03-29 16:12:00,
2013-03-29 10:22:00,54.0,32.0,-100.00,North,-999,-999.0,4.0,43,0.00,,,-99.99,487.000000,,2013-03-29 16:22:00,
2013-03-29 10:32:00,54.0,32.0,-100.00,North,-999,-999.0,4.0,43,0.00,,,-99.99,487.000000,,2013-03-29 16:32:00,
2013-03-29 10:42:00,54.0,32.0,-100.00,North,-999,-999.0,4.0,43,0.00,,,-99.99,487.000000,,2013-03-29 16:42:00,
2013-03-29 11:23:00,62.0,29.0,-100.00,North,-999,-999.0,6.0,29,0.00,,,-99.99,780.000000,,2013-03-29 17:23:00,
2013-03-29 11:33:00,62.0,30.0,-100.00,North,-999,-999.0,5.0,30,0.00,,,-99.99,810.000000,,2013-03-29 17:33:00,
2013-03-29 11:43:00,62.0,30.0,-100.00,North,-999,-999.0,7.0,30,0.00,,,-99.99,845.000000,,2013-03-29 17:43:00,
2013-03-29 11:52:00,61.0,30.0,-100.00,North,-999,-999.0,7.0,30,0.00,,,-99.99,872.000000,,2013-03-29 17:52:00,
2013-03-29 12:02:00,62.0,30.0,-100.00,North,-999,-999.0,7.0,29,0.00,,,-99.99,952.000000,,2013-03-29 18:02:00,
2013-03-29 12:12:00,64.0,31.0,-100.00,North,-999,-999.0,5.0,28,0.00,,,-99.99,921.000000,,2013-03-29 18:12:00,
2013-03-29 12:22:00,65.0,30.0,-100.00,North,-999,-999.0,4.0,27,0.00,,,-99.99,960.000000,,2013-03-29 18:22:00,
2013-03-29 12:32:00,64.0,27.0,-100.00,North,-999,-999.0,7.0,25,0.00,,,-99.99,1039.000000,,2013-03-29 18:32:00,
2013-03-29 12:42:00,64.0,29.0,-100.00,North,-999,-999.0,8.0,27,0.00,,,-99.99,997.000000,,2013-03-29 18:42:00,
2013-03-29 12:52:00,64.0,28.0,-100.00,North,-999,-999.0,12.0,26,0.00,,,-99.99,380.000000,,2013-03-29 18:52:00,
2013-03-29 13:02:00,63.0,29.0,-100.00,North,-999,-999.0,11.0,28,0.00,,,-99.99,491.000000,,2013-03-29 19:02:00,
2013-03-29 13:12:00,64.0,29.0,-100.00,North,-999,-999.0,9.0,26,0.00,,,-99.99,1007.000000,,2013-03-29 19:12:00,
2013-03-29 13:21:00,63.0,31.0,-100.00,North,-999,-999.0,8.0,30,0.00,,,-99.99,329.000000,,2013-03-29 19:21:00,
2013-03-29 13:32:00,62.0,29.0,-100.00,North,-999,-999.0,12.0,29,0.00,,,-99.99,213.000000,,2013-03-29 19:32:00,
2013-03-29 13:42:00,60.0,28.0,-100.00,North,-999,-999.0,24.0,30,0.00,,,-99.99,103.000000,,2013-03-29 19:42:00,
2013-03-29 13:52:00,59.0,32.0,-100.00,North,-999,-999.0,17.0,37,0.00,,,-99.99,52.000000,,2013-03-29 19:52:00,
2013-03-29 14:02:00,54.0,36.0,-100.00,North,-999,-999.0,20.0,50,0.00,,,-99.99,59.000000,,2013-03-29 20:02:00,
2013-03-29 14:12:00,53.0,41.0,-100.00,North,-999,-999.0,16.0,63,0.00,,,-99.99,115.000000,,2013-03-29 20:12:00,
2013-03-29 14:21:00,54.0,41.0,-100.00,North,-999,-999.0,8.0,63,0.00,,,-99.99,152.000000,,2013-03-29 20:21:00,
2013-03-29 14:32:00,56.0,42.0,-100.00,North,-999,-999.0,12.0,58,0.00,,,-99.99,1104.000000,,2013-03-29 20:32:00,
2013-03-29 14:42:00,60.0,37.0,-100.00,North,-999,-999.0,13.0,43,0.00,,,-99.99,1067.000000,,2013-03-29 20:42:00,
2013-03-29 14:50:00,60.0,33.0,-100.00,North,-999,-999.0,12.0,36,0.00,,,-99.99,191.000000,,2013-03-29 20:50:00,
2013-03-29 14:51:00,60.0,37.0,-100.00,North,-999,-999.0,13.0,43,0.00,,,-99.99,1067.000000,,2013-03-29 20:51:00,
2013-03-29 15:02:00,61.0,35.0,-100.00,North,-999,-999.0,13.0,37,0.00,,,-99.99,419.000000,,2013-03-29 21:02:00,
2013-03-29 15:11:00,60.0,33.0,-100.00,North,-999,-999.0,12.0,36,0.00,,,-99.99,191.000000,,2013-03-29 21:11:00,
2013-03-29 15:21:00,60.0,33.0,-100.00,North,-999,-999.0,12.0,36,0.00,,,-99.99,191.000000,,2013-03-29 21:21:00,
2013-03-29 15:32:00,60.0,33.0,-100.00,North,-999,-999.0,12.0,36,0.00,,,-99.99,191.000000,,2013-03-29 21:32:00,
2013-03-29 15:42:00,60.0,33.0,-100.00,North,-999,-999.0,12.0,36,0.00,,,-99.99,191.000000,,2013-03-29 21:42:00,
2013-03-29 16:23:00,58.0,38.0,-100.00,North,-999,-999.0,13.0,47,0.00,,,-99.99,248.000000,,2013-03-29 22:23:00,
2013-03-29 16:33:00,57.0,38.0,-100.00,North,-999,-999.0,13.0,48,0.00,,,-99.99,262.000000,,2013-03-29 22:33:00,
2013-03-29 16:42:00,57.0,36.0,-100.00,North,-999,-999.0,14.0,45,0.00,,,-99.99,208.000000,,2013-03-29 22:42:00,
2013-03-29 16:53:00,58.0,36.0,-100.00,North,-999,-999.0,13.0,45,0.00,,,-99.99,236.000000,,2013-03-29 22:53:00,
2013-03-29 17:02:00,58.0,33.0,-100.00,North,-999,-999.0,15.0,39,0.00,,,-99.99,183.000000,,2013-03-29 23:02:00,
2013-03-29 17:12:00,59.0,35.0,-100.00,North,-999,-999.0,12.0,40,0.00,,,-99.99,192.000000,,2013-03-29 23:12:00,
2013-03-29 17:22:00,61.0,31.0,-100.00,North,-999,-999.0,6.0,32,0.00,,,-99.99,226.000000,,2013-03-29 23:22:00,
2013-03-29 17:32:00,61.0,35.0,-100.00,North,-999,-999.0,5.0,38,0.00,,,-99.99,168.000000,,2013-03-29 23:32:00,
2013-03-29 17:42:00,61.0,32.0,-100.00,North,-999,-999.0,7.0,33,0.00,,,-99.99,247.000000,,2013-03-29 23:42:00,
2013-03-29 17:52:00,61.0,34.0,-100.00,North,-999,-999.0,7.0,36,0.00,,,-99.99,182.000000,,2013-03-29 23:52:00,
2013-03-29 18:02:00,60.0,36.0,-100.00,North,-999,-999.0,10.0,41,0.00,,,-99.99,171.000000,,2013-03-30 00:02:00,
2013-03-29 18:11:00,59.0,34.0,-100.00,North,-999,-999.0,12.0,38,0.00,,,-99.99,191.000000,,2013-03-30 00:11:00,
2013-03-29 18:21:00,59.0,35.0,-100.00,North,-999,-999.0,12.0,41,0.00,,,-99.99,138.000000,,2013-03-30 00:21:00,
2013-03-29 18:32:00,58.0,35.0,-100.00,North,-999,-999.0,15.0,42,0.00,,,-99.99,148.000000,,2013-03-30 00:32:00,
2013-03-29 18:42:00,58.0,35.0,-100.00,North,-999,-999.0,8.0,41,0.00,,,-99.99,152.000000,,2013-03-30 00:42:00,
2013-03-29 18:52:00,58.0,35.0,-100.00,North,-999,-999.0,8.0,41,0.00,,,-99.99,152.000000,,2013-03-30 00:52:00,
2013-03-29 19:02:00,61.0,34.0,-100.00,North,-999,-999.0,5.0,36,0.00,,,-99.99,241.000000,,2013-03-30 01:02:00,
2013-03-29 19:12:00,61.0,32.0,-100.00,North,-999,-999.0,5.0,33,0.00,,,-99.99,174.000000,,2013-03-30 01:12:00,
2013-03-29 19:21:00,61.0,34.0,-100.00,North,-999,-999.0,3.0,35,0.00,,,-99.99,136.000000,,2013-03-30 01:21:00,
2013-03-29 19:32:00,61.0,33.0,-100.00,North,-999,-999.0,3.0,35,0.00,,,-99.99,103.000000,,2013-03-30 01:32:00,
2013-03-29 19:42:00,59.0,35.0,-100.00,North,-999,-999.0,4.0,40,0.00,,,-99.99,71.000000,,2013-03-30 01:42:00,
2013-03-29 19:50:00,52.0,35.0,-100.00,North,-999,-999.0,5.0,53,0.00,,,-99.99,4.000000,,2013-03-30 01:50:00,
2013-03-29 19:52:00,56.0,37.0,-100.00,North,-999,-999.0,6.0,50,0.00,,,-99.99,21.000000,,2013-03-30 01:52:00,
2013-03-29 20:02:00,53.0,36.0,-100.00,North,-999,-999.0,5.0,52,0.00,,,-99.99,11.000000,,2013-03-30 02:02:00,
2013-03-29 20:12:00,52.0,35.0,-100.00,North,-999,-999.0,5.0,53,0.00,,,-99.99,4.000000,,2013-03-30 02:12:00,
2013-03-29 20:21:00,52.0,35.0,-100.00,North,-999,-999.0,5.0,53,0.00,,,-99.99,4.000000,,2013-03-30 02:21:00,
2013-03-29 20:32:00,52.0,35.0,-100.00,North,-999,-999.0,5.0,53,0.00,,,-99.99,4.000000,,2013-03-30 02:32:00,
2013-03-29 20:42:00,52.0,35.0,-100.00,North,-999,-999.0,5.0,53,0.00,,,-99.99,4.000000,,2013-03-30 02:42:00,
2013-03-29 21:22:00,49.0,35.0,-100.00,North,-999,-999.0,4.0,58,0.00,,,-99.99,0.000000,,2013-03-30 03:22:00,
2013-03-29 21:33:00,48.0,35.0,-100.00,North,-999,-999.0,5.0,60,0.00,,,-99.99,0.000000,,2013-03-30 03:33:00,
2013-03-29 21:43:00,48.0,35.0,-100.00,North,-999,-999.0,6.0,60,0.00,,,-99.99,0.000000,,2013-03-30 03:43:00,
2013-03-29 21:53:00,49.0,35.0,-100.00,North,-999,-999.0,6.0,58,0.00,,,-99.99,0.000000,,2013-03-30 03:53:00,
2013-03-29 22:02:00,47.0,35.0,-100.00,North,-999,-999.0,5.0,63,0.00,,,-99.99,0.000000,,2013-03-30 04:02:00,
2013-03-29 22:12:00,47.0,35.0,-100.00,North,-999,-999.0,6.0,61,0.00,,,-99.99,0.000000,,2013-03-30 04:12:00,
2013-03-29 22:22:00,44.0,35.0,-100.00,North,-999,-999.0,4.0,69,0.00,,,-99.99,0.000000,,2013-03-30 04:22:00,
2013-03-29 22:32:00,46.0,35.0,-100.00,North,-999,-999.0,4.0,66,0.00,,,-99.99,0.000000,,2013-03-30 04:32:00,
2013-03-29 22:42:00,47.0,35.0,-100.00,North,-999,-999.0,4.0,63,0.00,,,-99.99,0.000000,,2013-03-30 04:42:00,
2013-03-29 22:52:00,46.0,34.0,-100.00,North,-999,-999.0,2.0,64,0.00,,,-99.99,0.000000,,2013-03-30 04:52:00,
2013-03-29 23:02:00,45.0,34.0,-100.00,North,-999,-999.0,5.0,66,0.00,,,-99.99,0.000000,,2013-03-30 05:02:00,
2013-03-29 23:12:00,44.0,34.0,-100.00,North,-999,-999.0,5.0,69,0.00,,,-99.99,0.000000,,2013-03-30 05:12:00,
2013-03-29 23:22:00,45.0,34.0,-100.00,North,-999,-999.0,4.0,65,0.00,,,-99.99,0.000000,,2013-03-30 05:22:00,
2013-03-29 23:32:00,45.0,34.0,-100.00,North,-999,-999.0,3.0,66,0.00,,,-99.99,0.000000,,2013-03-30 05:32:00,
2013-03-29 23:42:00,44.0,34.0,-100.00,North,-999,-999.0,4.0,69,0.00,,,-99.99,0.000000,,2013-03-30 05:42:00,
2013-03-29 23:51:00,45.0,34.0,-100.00,North,-999,-999.0,4.0,65,0.00,,,-99.99,0.000000,,2013-03-30 05:51:00,